Time;durP1;ratioP1;P1;durP2;ratioP2;P2;SDS_P1;SDS_P2;PMS_P1;PMS_P2;Temp;Humidity;BMP_temperature;BMP_pressure;BME280_temperature;BME280_humidity;BME280_pressure;Samples;Min_cycle;Max_cycle;Signal;HPM_P1;HPM_P2
2023/04/05 00:01:20;;;;;;;46.53;36.93;;;28.30;62.50;;;;;;1797977;78;21138;-83
2023/04/05 00:03:53;;;;;;;45.30;36.30;;;28.30;62.30;;;;;;1787401;77;21570;-83
2023/04/05 00:06:29;;;;;;;45.05;35.60;;;28.40;62.00;;;;;;1788866;79;21227;-81
2023/04/05 00:09:02;;;;;;;44.63;35.70;;;28.40;61.80;;;;;;1809443;78;21987;-82
2023/04/05 00:11:34;;;;;;;49.35;36.25;;;28.50;62.90;;;;;;1805010;79;21615;-73
2023/04/05 00:14:05;;;;;;;50.48;37.20;;;28.50;61.90;;;;;;1806277;79;21185;-73
2023/04/05 00:16:37;;;;;;;51.37;36.60;;;28.60;62.30;;;;;;1793806;76;21733;-74
2023/04/05 00:19:11;;;;;;;48.83;37.10;;;28.60;62.00;;;;;;1841033;75;21169;-72
2023/04/05 00:21:41;;;;;;;50.63;39.40;;;28.70;62.80;;;;;;1877216;75;21141;-73
2023/04/05 00:24:14;;;;;;;48.98;37.98;;;28.70;62.10;;;;;;1897957;75;21219;-75
2023/04/05 00:26:45;;;;;;;51.45;39.63;;;28.70;62.00;;;;;;1863170;75;21133;-74
2023/04/05 00:29:17;;;;;;;49.45;38.40;;;28.70;61.90;;;;;;1827763;77;21138;-73
2023/04/05 00:31:48;;;;;;;51.92;39.58;;;28.70;62.10;;;;;;1867570;75;21447;-74
2023/04/05 00:34:19;;;;;;;50.40;39.18;;;28.80;62.80;;;;;;1880395;75;21682;-72
2023/04/05 00:36:50;;;;;;;50.23;38.90;;;28.80;62.80;;;;;;1866112;75;21873;-74
2023/04/05 00:39:22;;;;;;;48.75;39.10;;;28.90;62.80;;;;;;1899181;75;21597;-73
2023/04/05 00:41:53;;;;;;;47.88;38.53;;;28.90;62.90;;;;;;1883262;75;21943;-74
2023/04/05 00:44:25;;;;;;;50.05;39.55;;;29.00;62.50;;;;;;1863263;77;21180;-71
2023/04/05 00:46:57;;;;;;;51.37;39.03;;;29.00;62.00;;;;;;1864328;75;21148;-73
2023/04/05 00:49:31;;;;;;;54.25;39.98;;;29.10;62.10;;;;;;1846959;77;22227;-76
2023/04/05 00:52:02;;;;;;;52.40;40.35;;;29.10;62.10;;;;;;1857047;75;21428;-74
2023/04/05 00:54:34;;;;;;;53.23;40.25;;;29.20;62.50;;;;;;1822626;78;21184;-74
2023/04/05 00:57:07;;;;;;;53.25;39.50;;;29.30;62.50;;;;;;1808088;77;21249;-71
2023/04/05 00:59:39;;;;;;;50.30;40.35;;;29.30;62.40;;;;;;1860938;75;21105;-75
2023/04/05 01:02:15;;;;;;;44.53;38.50;;;29.40;62.50;;;;;;1861400;75;21664;-73
2023/04/05 01:04:49;;;;;;;53.90;39.50;;;29.40;62.30;;;;;;1821389;77;21255;-73
2023/04/05 01:07:38;;;;;;;51.55;38.53;;;29.60;62.00;;;;;;1816776;77;21138;-74
2023/04/05 01:10:12;;;;;;;52.90;40.85;;;29.60;61.80;;;;;;1871958;75;21198;-88
2023/04/05 01:12:43;;;;;;;51.40;40.05;;;29.70;61.80;;;;;;1880580;75;21211;-87
2023/04/05 01:15:15;;;;;;;50.20;40.52;;;29.80;61.40;;;;;;1885626;75;21214;-88
2023/04/05 01:17:47;;;;;;;53.50;41.20;;;29.90;61.40;;;;;;1836150;77;21158;-88
2023/04/05 01:20:19;;;;;;;52.88;37.53;;;29.90;61.30;;;;;;1778275;79;22115;-88
2023/04/05 01:23:07;;;;;;;47.15;38.35;;;30.00;61.10;;;;;;1826774;77;21164;-88
2023/04/05 01:26:04;;;;;;;64.85;41.95;;;30.00;60.90;;;;;;1824163;77;21137;-89
2023/04/05 01:28:56;;;;;;;60.23;42.10;;;30.10;61.00;;;;;;1822905;79;21085;-88
2023/04/05 01:31:53;;;;;;;68.05;44.42;;;30.20;61.50;;;;;;1746157;80;21113;-88
2023/04/05 01:34:55;;;;;;;61.20;40.52;;;30.20;61.00;;;;;;1786698;79;21232;-88
2023/04/05 01:37:29;;;;;;;51.45;40.55;;;30.30;61.80;;;;;;1832844;77;21645;-88
2023/04/05 01:40:03;;;;;;;62.10;43.33;;;30.30;61.90;;;;;;1795598;79;21167;-89
2023/04/05 01:42:35;;;;;;;53.75;41.58;;;30.40;61.70;;;;;;1823186;78;21156;-87
2023/04/05 01:45:07;;;;;;;56.92;40.17;;;30.50;61.80;;;;;;1797257;79;21239;-87
2023/04/05 01:47:38;;;;;;;46.98;39.27;;;30.60;62.10;;;;;;1804028;78;21516;-87
2023/04/05 01:50:10;;;;;;;51.68;41.95;;;30.70;60.80;;;;;;1826416;77;21549;-89
2023/04/05 01:52:42;;;;;;;57.70;42.05;;;30.70;60.90;;;;;;1834275;77;21156;-88
2023/04/05 01:55:13;;;;;;;64.90;43.05;;;30.80;60.60;;;;;;1827970;77;21222;-89
2023/04/05 01:57:45;;;;;;;52.58;42.80;;;30.90;60.50;;;;;;1833169;77;21369;-87
2023/04/05 02:00:17;;;;;;;52.45;40.95;;;31.00;60.00;;;;;;1833779;77;21222;-89
2023/04/05 02:02:48;;;;;;;51.53;40.25;;;31.10;59.50;;;;;;1819893;79;21215;-83
2023/04/05 02:05:19;;;;;;;52.17;41.70;;;31.20;59.40;;;;;;1815351;79;21148;-88
2023/04/05 02:07:53;;;;;;;51.53;42.08;;;31.20;59.50;;;;;;1826712;77;21217;-86
2023/04/05 02:10:25;;;;;;;48.38;40.98;;;31.40;58.50;;;;;;1828354;77;21196;-85
2023/04/05 02:12:56;;;;;;;55.23;40.98;;;31.40;58.50;;;;;;1821029;77;21147;-88
2023/04/05 02:15:28;;;;;;;52.78;41.77;;;31.40;58.40;;;;;;1826606;77;21141;-85
2023/04/05 02:18:04;;;;;;;52.93;41.13;;;31.50;58.70;;;;;;1792631;77;21151;-85
2023/04/05 02:20:32;;;;;;;48.05;40.38;;;31.60;58.30;;;;;;1826341;77;21237;-85
2023/04/05 02:23:03;;;;;;;47.60;41.10;;;31.70;57.40;;;;;;1816617;77;21577;-87
2023/04/05 02:25:35;;;;;;;52.83;42.00;;;31.80;57.60;;;;;;1814402;78;21233;-84
2023/04/05 02:28:08;;;;;;;44.70;39.30;;;31.90;57.20;;;;;;1814654;78;21197;-85
2023/04/05 02:30:41;;;;;;;46.63;40.17;;;32.00;56.30;;;;;;1819296;78;21078;-86
2023/04/05 02:33:12;;;;;;;45.45;37.75;;;32.00;56.30;;;;;;1830252;77;21149;-87
2023/04/05 02:35:44;;;;;;;49.33;40.95;;;32.10;56.30;;;;;;1818709;77;21453;-83
2023/04/05 02:38:15;;;;;;;46.10;39.95;;;32.20;56.70;;;;;;1816792;78;21254;-89
2023/04/05 02:40:52;;;;;;;49.00;40.67;;;32.30;56.80;;;;;;1832117;78;21636;-89
2023/04/05 02:43:24;;;;;;;48.55;39.92;;;32.40;56.50;;;;;;1843617;77;21152;-88
2023/04/05 02:45:55;;;;;;;47.48;39.53;;;32.60;55.60;;;;;;1825803;78;21140;-89
2023/04/05 02:48:26;;;;;;;49.40;43.38;;;32.70;55.30;;;;;;1792079;79;21712;-89
2023/04/05 02:50:58;;;;;;;54.13;40.67;;;32.80;55.70;;;;;;1796410;79;21235;-85
2023/04/05 02:53:29;;;;;;;49.63;40.38;;;32.90;55.60;;;;;;1818602;79;21132;-89
2023/04/05 02:56:00;;;;;;;57.60;41.88;;;33.10;55.10;;;;;;1795877;79;21153;-90
2023/04/05 02:58:31;;;;;;;56.25;44.63;;;33.20;55.10;;;;;;1825919;78;21975;-90
2023/04/05 03:01:06;;;;;;;68.28;43.08;;;33.30;54.70;;;;;;1812556;77;21144;-89
2023/04/05 03:03:39;;;;;;;49.20;38.98;;;33.40;55.00;;;;;;1830768;77;21136;-90
2023/04/05 03:06:09;;;;;;;67.03;42.25;;;33.50;54.50;;;;;;1838930;77;21871;-89
2023/04/05 03:08:45;;;;;;;49.67;39.95;;;33.60;54.00;;;;;;1811314;78;21849;-88
2023/04/05 03:11:16;;;;;;;51.65;41.53;;;33.70;53.70;;;;;;1825931;77;21093;-90
2023/04/05 03:13:47;;;;;;;51.50;40.05;;;33.80;54.00;;;;;;1821802;78;21125;-86
2023/04/05 03:16:21;;;;;;;52.73;41.68;;;33.90;53.10;;;;;;1834035;77;21086;-86
2023/04/05 03:18:56;;;;;;;48.75;39.83;;;34.00;53.30;;;;;;1829540;77;21932;-86
2023/04/05 03:21:30;;;;;;;59.33;38.98;;;34.10;52.50;;;;;;1842250;77;21197;-83
2023/04/05 03:24:01;;;;;;;48.13;40.67;;;34.20;52.40;;;;;;1790810;78;21102;-88
2023/04/05 03:26:33;;;;;;;52.58;39.35;;;34.20;52.40;;;;;;1778478;80;21437;-87
2023/04/05 03:29:09;;;;;;;44.88;38.65;;;34.40;52.10;;;;;;1781927;80;21180;-86
2023/04/05 03:31:39;;;;;;;48.23;37.38;;;34.40;52.10;;;;;;1823986;75;21388;-89
2023/04/05 03:34:10;;;;;;;48.83;37.28;;;34.50;52.90;;;;;;1821949;77;21613;-89
2023/04/05 03:36:41;;;;;;;42.48;37.98;;;34.70;52.20;;;;;;1836104;77;21115;-88
2023/04/05 03:39:14;;;;;;;47.15;37.70;;;34.70;51.40;;;;;;1830203;77;21247;-87
2023/04/05 03:41:45;;;;;;;59.23;41.05;;;34.80;51.30;;;;;;1827212;78;21184;-87
2023/04/05 03:44:16;;;;;;;45.58;37.45;;;34.90;50.40;;;;;;1835583;77;21161;-88
2023/04/05 03:46:48;;;;;;;47.23;38.10;;;35.00;50.50;;;;;;1832675;77;21126;-88
2023/04/05 03:49:19;;;;;;;50.25;40.05;;;35.10;50.40;;;;;;1828651;77;21171;-83
2023/04/05 03:51:53;;;;;;;43.70;35.50;;;35.10;50.70;;;;;;1824990;77;21676;-87
2023/04/05 03:54:28;;;;;;;38.58;34.05;;;35.30;49.00;;;;;;1732808;83;21183;-89
2023/04/05 03:57:00;;;;;;;49.98;38.58;;;35.30;48.50;;;;;;1771053;81;21112;-88
2023/04/05 03:59:31;;;;;;;40.33;36.10;;;35.40;50.00;;;;;;1821808;78;21912;-88
2023/04/05 04:02:05;;;;;;;41.13;36.38;;;35.40;48.60;;;;;;1823498;77;21196;-87
2023/04/05 04:04:38;;;;;;;38.42;34.33;;;35.50;48.10;;;;;;1832626;77;21055;-93
2023/04/05 04:07:10;;;;;;;38.33;34.23;;;35.50;47.40;;;;;;1820888;78;21189;-87
2023/04/05 04:09:41;;;;;;;38.95;33.02;;;35.60;47.50;;;;;;1821118;77;21162;-91
2023/04/05 04:12:12;;;;;;;39.15;33.83;;;35.70;47.30;;;;;;1827898;77;21221;-88
2023/04/05 04:14:44;;;;;;;42.50;34.70;;;35.80;47.50;;;;;;1836442;77;21118;-89
2023/04/05 04:17:25;;;;;;;63.17;44.60;;;35.80;47.50;;;;;;1828417;78;21640;-90
2023/04/05 04:19:53;;;;;;;38.17;33.15;;;35.90;48.20;;;;;;1821577;77;21129;-87
2023/04/05 04:22:32;;;;;;;40.67;34.50;;;36.00;47.60;;;;;;1847106;76;21139;-90
2023/04/05 04:25:03;;;;;;;35.88;31.97;;;36.00;46.80;;;;;;1855270;76;21690;-91
2023/04/05 04:27:35;;;;;;;43.35;35.92;;;36.10;46.30;;;;;;1878056;76;21590;-91
2023/04/05 04:30:11;;;;;;;42.78;31.93;;;36.20;47.00;;;;;;1843750;76;21152;-91
2023/04/05 04:32:53;;;;;;;37.73;32.08;;;36.40;45.80;;;;;;1810833;78;21205;-91
2023/04/05 04:35:27;;;;;;;37.38;33.30;;;36.40;45.40;;;;;;1782122;79;21138;-91
2023/04/05 04:38:03;;;;;;;37.73;33.50;;;36.50;45.70;;;;;;1846209;76;22084;-88
2023/04/05 04:40:45;;;;;;;40.52;34.03;;;36.70;45.20;;;;;;1843637;78;21100;-93
2023/04/05 04:43:26;;;;;;;41.23;33.42;;;36.70;45.40;;;;;;1862512;75;21133;-89
2023/04/05 04:45:53;;;;;;;32.78;28.85;;;36.80;44.30;;;;;;1849242;76;21185;-84
2023/04/05 04:48:23;;;;;;;44.18;32.40;;;36.80;42.30;;;;;;1847542;77;21172;-82
2023/04/05 04:50:56;;;;;;;31.45;28.07;;;36.80;43.40;;;;;;1867120;76;21671;-84
2023/04/05 04:53:30;;;;;;;34.88;28.62;;;36.80;43.10;;;;;;1813170;78;21177;-84
2023/04/05 04:56:01;;;;;;;30.50;27.27;;;36.80;42.80;;;;;;1869557;76;21749;-86
2023/04/05 04:58:33;;;;;;;28.50;25.25;;;36.90;40.30;;;;;;1827858;76;21157;-85
2023/04/05 05:01:08;;;;;;;28.27;22.80;;;37.00;41.20;;;;;;1849244;76;21232;-87
2023/04/05 05:03:39;;;;;;;27.95;23.83;;;37.10;40.40;;;;;;1829437;76;21133;-86
2023/04/05 05:06:11;;;;;;;27.87;23.40;;;37.20;39.60;;;;;;1857951;77;21186;-85
2023/04/05 05:08:43;;;;;;;31.48;26.05;;;37.30;38.60;;;;;;1887177;76;21113;-84
2023/04/05 05:11:14;;;;;;;27.67;24.65;;;37.30;39.20;;;;;;1772261;79;21146;-85
2023/04/05 05:13:46;;;;;;;26.30;23.05;;;37.40;39.20;;;;;;1754873;81;21188;-85
2023/04/05 05:16:20;;;;;;;29.65;23.65;;;37.50;37.40;;;;;;1806177;78;21959;-82
2023/04/05 05:18:55;;;;;;;27.58;24.00;;;37.60;38.60;;;;;;1799393;79;21171;-84
2023/04/05 05:21:26;;;;;;;31.30;26.00;;;37.60;37.60;;;;;;1868151;75;21593;-83
2023/04/05 05:23:58;;;;;;;29.25;25.62;;;37.60;37.80;;;;;;1860469;75;21243;-84
2023/04/05 05:26:30;;;;;;;28.77;24.37;;;37.70;38.60;;;;;;1843177;77;21177;-84
2023/04/05 05:29:03;;;;;;;28.17;23.05;;;37.70;37.40;;;;;;1868662;75;21191;-84
2023/04/05 05:31:35;;;;;;;27.50;24.50;;;37.70;37.30;;;;;;1876807;75;21223;-85
2023/04/05 05:34:06;;;;;;;26.55;23.70;;;37.70;38.00;;;;;;1861366;77;21137;-85
2023/04/05 05:36:37;;;;;;;25.43;21.90;;;37.70;38.00;;;;;;1852401;77;21149;-85
2023/04/05 05:39:08;;;;;;;27.55;24.60;;;37.70;37.40;;;;;;1858205;77;21137;-85
2023/04/05 05:41:41;;;;;;;30.60;25.30;;;37.70;37.60;;;;;;1869836;75;21073;-85
2023/04/05 05:44:12;;;;;;;34.10;26.85;;;37.90;38.90;;;;;;1870288;77;21086;-83
2023/04/05 05:46:44;;;;;;;26.62;23.83;;;37.90;39.70;;;;;;1860923;76;21557;-83
2023/04/05 05:49:16;;;;;;;29.52;24.85;;;37.90;38.50;;;;;;1869581;75;21956;-84
2023/04/05 05:51:48;;;;;;;27.93;24.35;;;37.90;38.30;;;;;;1802598;77;21223;-84
2023/04/05 05:54:19;;;;;;;26.68;23.75;;;37.80;38.40;;;;;;1827991;77;21142;-84
2023/04/05 05:56:50;;;;;;;28.55;24.10;;;37.90;37.20;;;;;;1819525;79;21109;-84
2023/04/05 05:59:21;;;;;;;24.50;18.60;;;37.90;38.20;;;;;;1796336;78;21169;-83
2023/04/05 06:01:54;;;;;;;24.55;22.15;;;37.90;33.40;;;;;;1809833;78;21150;-85
2023/04/05 06:04:26;;;;;;;24.57;22.07;;;38.00;36.60;;;;;;1788458;80;21231;-85
2023/04/05 06:06:58;;;;;;;30.50;21.87;;;38.00;37.00;;;;;;1801291;78;21141;-83
2023/04/05 06:09:32;;;;;;;21.33;17.92;;;38.00;34.90;;;;;;1792212;79;21113;-84
2023/04/05 06:12:03;;;;;;;19.92;17.87;;;38.10;33.10;;;;;;1789473;80;21167;-83
2023/04/05 06:14:34;;;;;;;19.52;16.87;;;38.10;33.80;;;;;;1759536;81;21196;-85
2023/04/05 06:17:07;;;;;;;15.70;14.10;;;38.10;31.00;;;;;;1807090;79;21608;-84
2023/04/05 06:19:38;;;;;;;21.48;15.65;;;38.10;31.50;;;;;;1817995;77;21995;-85
2023/04/05 06:22:09;;;;;;;18.73;14.55;;;38.10;29.40;;;;;;1796270;77;21224;-84
2023/04/05 06:24:41;;;;;;;25.10;14.53;;;38.20;27.70;;;;;;1770090;78;21245;-85
2023/04/05 06:27:13;;;;;;;16.57;13.80;;;38.30;29.40;;;;;;1844122;77;21152;-85
2023/04/05 06:29:44;;;;;;;19.40;14.85;;;38.40;29.60;;;;;;1841857;78;21145;-85
2023/04/05 06:32:15;;;;;;;15.35;13.53;;;38.50;28.70;;;;;;1825825;78;21149;-83
2023/04/05 06:34:47;;;;;;;16.02;13.68;;;38.50;27.20;;;;;;1836862;78;21124;-85
2023/04/05 06:37:19;;;;;;;14.85;13.28;;;38.50;30.40;;;;;;1840200;76;21137;-85
2023/04/05 06:39:51;;;;;;;15.10;13.70;;;38.60;29.70;;;;;;1831071;76;21106;-85
2023/04/05 06:42:22;;;;;;;16.75;15.05;;;38.50;29.00;;;;;;1850508;76;21508;-82
2023/04/05 06:44:55;;;;;;;19.42;16.62;;;38.50;30.00;;;;;;1854632;76;21128;-85
2023/04/05 06:47:26;;;;;;;19.45;14.20;;;38.50;30.50;;;;;;1862377;76;21778;-85
2023/04/05 06:49:57;;;;;;;17.20;15.48;;;38.60;29.80;;;;;;1841598;78;21936;-84
2023/04/05 06:52:29;;;;;;;24.10;14.68;;;38.60;31.20;;;;;;1841672;78;21811;-85
2023/04/05 06:55:02;;;;;;;15.93;14.33;;;38.50;29.70;;;;;;1845841;76;21365;-84
2023/04/05 06:57:33;;;;;;;20.15;14.68;;;38.40;30.50;;;;;;1857031;76;21513;-85
2023/04/05 07:00:12;;;;;;;16.45;14.00;;;38.40;29.40;;;;;;1846429;76;21219;-85
2023/04/05 07:02:40;;;;;;;;;;;38.40;29.20;;;;;;1839321;76;21130;-85
2023/04/05 07:05:11;;;;;;;55.92;19.62;;;38.40;31.00;;;;;;1856265;76;20119;-84
2023/04/05 07:07:44;;;;;;;19.60;17.60;;;38.40;31.20;;;;;;1847804;76;21063;-85
2023/04/05 07:10:17;;;;;;;19.95;16.40;;;38.40;32.40;;;;;;1845715;78;21102;-86
2023/04/05 07:12:48;;;;;;;21.42;18.30;;;38.40;31.80;;;;;;1861741;76;21126;-85
2023/04/05 07:15:20;;;;;;;22.40;18.05;;;38.40;32.70;;;;;;1843481;76;21129;-86
2023/04/05 07:17:51;;;;;;;20.43;17.98;;;38.30;32.40;;;;;;1842717;77;21122;-85
2023/04/05 07:20:22;;;;;;;19.35;17.05;;;38.20;32.50;;;;;;1844700;78;21136;-85
2023/04/05 07:22:55;;;;;;;20.55;17.25;;;38.20;32.20;;;;;;1861633;77;21187;-87
2023/04/05 07:25:26;;;;;;;20.00;17.80;;;38.20;31.80;;;;;;1871052;77;21175;-86
2023/04/05 07:27:58;;;;;;;23.73;18.23;;;38.20;32.50;;;;;;1868068;75;21203;-85
2023/04/05 07:30:31;;;;;;;21.27;17.82;;;38.20;32.90;;;;;;1868580;75;21179;-83
2023/04/05 07:33:02;;;;;;;20.05;17.80;;;38.20;33.30;;;;;;1871507;77;21143;-87
2023/04/05 07:35:34;;;;;;;23.60;18.20;;;38.20;32.40;;;;;;1868960;76;21647;-86
2023/04/05 07:38:06;;;;;;;23.32;17.07;;;38.20;33.00;;;;;;1869088;77;21164;-85
2023/04/05 07:40:38;;;;;;;23.20;16.48;;;38.30;32.30;;;;;;1868979;77;21155;-87
2023/04/05 07:43:12;;;;;;;19.00;17.07;;;38.20;31.20;;;;;;1872335;77;21164;-87
2023/04/05 07:45:44;;;;;;;20.05;17.02;;;38.30;32.20;;;;;;1869074;77;21527;-87
2023/04/05 07:48:15;;;;;;;20.62;16.40;;;38.20;31.10;;;;;;1863616;77;21129;-85
2023/04/05 07:50:48;;;;;;;22.17;16.93;;;38.30;30.90;;;;;;1869756;77;21158;-84
2023/04/05 07:53:20;;;;;;;26.55;17.17;;;38.20;30.80;;;;;;1869342;77;21648;-85
2023/04/05 07:55:52;;;;;;;19.15;16.62;;;38.30;30.10;;;;;;1866470;75;21168;-86
2023/04/05 07:58:29;;;;;;;20.55;16.07;;;38.30;30.00;;;;;;1872602;77;21502;-86
2023/04/05 08:01:04;;;;;;;20.70;16.02;;;38.30;30.40;;;;;;1857039;75;21595;-85
2023/04/05 08:03:38;;;;;;;18.65;16.73;;;38.20;31.50;;;;;;1860737;77;21286;-85
2023/04/05 08:06:13;;;;;;;25.02;18.23;;;38.20;31.50;;;;;;1864776;77;21135;-85
2023/04/05 08:08:45;;;;;;;22.90;19.55;;;38.30;31.70;;;;;;1849581;77;21113;-84
2023/04/05 08:11:17;;;;;;;20.60;18.23;;;38.30;31.70;;;;;;1868235;76;21199;-87
2023/04/05 08:13:49;;;;;;;23.00;17.80;;;38.20;32.60;;;;;;1867944;77;21101;-85
2023/04/05 08:16:21;;;;;;;19.23;15.90;;;38.20;31.60;;;;;;1869115;77;21132;-85
2023/04/05 08:18:52;;;;;;;18.40;15.93;;;38.30;32.50;;;;;;1871605;77;21086;-83
2023/04/05 08:21:25;;;;;;;31.27;18.20;;;38.20;31.50;;;;;;1869622;75;21183;-85
2023/04/05 08:23:57;;;;;;;20.52;17.60;;;38.30;32.00;;;;;;1862435;76;21097;-84
2023/04/05 08:26:28;;;;;;;19.73;16.82;;;38.30;32.30;;;;;;1848717;76;21562;-84
2023/04/05 08:28:59;;;;;;;20.35;17.25;;;38.20;32.50;;;;;;1856816;77;21109;-84
2023/04/05 08:31:49;;;;;;;18.55;16.55;;;38.20;32.30;;;;;;1843990;76;21097;-83
2023/04/05 08:34:20;;;;;;;24.80;18.07;;;38.20;32.10;;;;;;1862892;77;21168;-84
2023/04/05 08:36:51;;;;;;;27.85;17.75;;;38.20;32.50;;;;;;1860843;75;21169;-86
2023/04/05 08:39:27;;;;;;;38.05;18.77;;;38.20;32.40;;;;;;1857597;76;21251;-86
2023/04/05 08:42:21;;;;;;;24.43;18.07;;;38.20;32.60;;;;;;1867199;76;21123;-85
2023/04/05 08:44:53;;;;;;;24.18;17.65;;;38.10;32.70;;;;;;1868416;75;21082;-88
2023/04/05 08:47:25;;;;;;;29.27;22.02;;;38.10;32.50;;;;;;1856063;77;21219;-86
2023/04/05 08:49:56;;;;;;;23.47;19.00;;;38.00;32.40;;;;;;1835734;76;21177;-87
2023/04/05 08:52:30;;;;;;;28.35;17.98;;;38.00;32.40;;;;;;1861911;76;21121;-86
2023/04/05 08:55:01;;;;;;;20.23;18.07;;;38.00;32.20;;;;;;1872176;75;21093;-87
2023/04/05 08:57:34;;;;;;;22.75;17.25;;;38.00;32.10;;;;;;1872039;75;21124;-87
2023/04/05 09:00:07;;;;;;;22.30;17.37;;;38.00;32.80;;;;;;1863530;76;21521;-85
2023/04/05 09:02:39;;;;;;;24.43;17.23;;;38.00;31.20;;;;;;1847985;77;21176;-86
2023/04/05 09:05:12;;;;;;;20.57;16.90;;;37.90;31.20;;;;;;1860374;77;21219;-88
2023/04/05 09:07:46;;;;;;;19.73;17.73;;;37.90;32.80;;;;;;1846238;77;21530;-89
2023/04/05 09:10:19;;;;;;;26.77;17.50;;;37.90;32.20;;;;;;1850512;76;21082;-89
2023/04/05 09:12:51;;;;;;;19.20;16.00;;;37.90;32.90;;;;;;1859373;76;21176;-88
2023/04/05 09:15:25;;;;;;;19.45;17.07;;;37.90;32.50;;;;;;1863237;76;21133;-89
2023/04/05 09:17:57;;;;;;;20.55;17.60;;;37.80;32.40;;;;;;1855977;77;21110;-88
2023/04/05 09:20:29;;;;;;;21.10;17.87;;;37.80;32.90;;;;;;1856985;77;21085;-88
2023/04/05 09:23:01;;;;;;;24.92;17.37;;;37.80;32.00;;;;;;1860198;76;21222;-89
2023/04/05 09:25:41;;;;;;;19.62;17.17;;;37.70;31.90;;;;;;1869481;75;21184;-88
2023/04/05 09:28:13;;;;;;;20.52;17.27;;;37.80;33.40;;;;;;1874786;75;21251;-89
2023/04/05 09:30:48;;;;;;;20.32;17.15;;;37.70;33.00;;;;;;1879098;75;21215;-88
2023/04/05 09:33:21;;;;;;;23.70;17.05;;;37.60;32.50;;;;;;1867234;75;21140;-89
2023/04/05 09:35:53;;;;;;;25.15;16.57;;;37.70;33.00;;;;;;1867660;75;21136;-89
2023/04/05 09:38:46;;;;;;;22.65;15.68;;;37.60;32.20;;;;;;1880708;75;21140;-88
2023/04/05 09:41:17;;;;;;;21.52;15.85;;;37.60;31.10;;;;;;1847063;76;21255;-89
2023/04/05 09:43:48;;;;;;;28.10;17.60;;;37.60;30.80;;;;;;1866805;75;21180;-75
2023/04/05 09:46:40;;;;;;;26.02;16.37;;;37.60;31.00;;;;;;1867951;76;21171;-74
2023/04/05 09:49:13;;;;;;;16.82;14.78;;;37.60;30.30;;;;;;1867072;75;21153;-71
2023/04/05 09:51:45;;;;;;;22.82;16.12;;;37.60;30.80;;;;;;1875125;75;21402;-72
2023/04/05 09:54:17;;;;;;;18.00;15.30;;;37.70;31.10;;;;;;1855858;76;21125;-72
2023/04/05 09:56:53;;;;;;;23.42;15.58;;;37.60;30.50;;;;;;1862631;77;21215;-73
2023/04/05 09:59:25;;;;;;;17.75;14.95;;;37.60;30.20;;;;;;1843046;75;21148;-72
2023/04/05 10:01:56;;;;;;;22.13;15.63;;;37.50;31.00;;;;;;1899898;75;21638;-74
2023/04/05 10:04:29;;;;;;;20.32;15.65;;;37.50;31.10;;;;;;1872706;75;21165;-74
2023/04/05 10:07:00;;;;;;;21.23;15.32;;;37.50;30.90;;;;;;1824847;77;21496;-75
2023/04/05 10:09:32;;;;;;;22.42;15.20;;;37.50;31.20;;;;;;1784156;80;21157;-72
2023/04/05 10:12:06;;;;;;;19.55;15.40;;;37.40;31.60;;;;;;1800855;78;21138;-74
2023/04/05 10:14:37;;;;;;;17.60;15.63;;;37.50;32.60;;;;;;1796134;78;21256;-72
2023/04/05 10:17:11;;;;;;;22.05;15.83;;;37.40;32.70;;;;;;1790293;79;21130;-72
2023/04/05 10:20:03;;;;;;;23.73;16.30;;;37.40;32.40;;;;;;1772192;79;21164;-74
2023/04/05 10:22:57;;;;;;;19.17;15.63;;;37.40;33.00;;;;;;1818501;79;21128;-72
2023/04/05 10:25:53;;;;;;;18.35;14.95;;;37.40;32.30;;;;;;1818126;77;21157;-72
2023/04/05 10:28:34;;;;;;;21.20;15.63;;;37.30;32.60;;;;;;1840436;76;21207;-73
2023/04/05 10:31:33;;;;;;;22.62;16.57;;;37.30;32.30;;;;;;1838783;76;21442;-73
2023/04/05 10:34:07;;;;;;;22.05;16.70;;;37.30;32.40;;;;;;1832833;77;21170;-72
2023/04/05 10:37:00;;;;;;;19.82;15.10;;;37.20;32.80;;;;;;1788110;79;21157;-72
2023/04/05 10:39:43;;;;;;;24.67;16.70;;;37.20;33.20;;;;;;1777297;80;21529;-73
2023/04/05 10:42:23;;;;;;;22.30;15.70;;;37.10;33.20;;;;;;1779803;77;21189;-73
2023/04/05 10:44:58;;;;;;;20.62;16.52;;;37.10;32.80;;;;;;1840012;77;21191;-75
2023/04/05 10:47:31;;;;;;;21.12;16.17;;;37.10;33.10;;;;;;1829368;78;21160;-89
2023/04/05 10:50:04;;;;;;;18.70;16.70;;;37.10;33.90;;;;;;1873175;76;21081;-90
2023/04/05 10:52:37;;;;;;;17.90;16.00;;;37.00;33.20;;;;;;1875761;76;21186;-89
2023/04/05 10:55:10;;;;;;;23.70;16.23;;;37.00;33.60;;;;;;1863758;77;21070;-90
2023/04/05 10:57:43;;;;;;;21.12;16.95;;;36.90;33.50;;;;;;1873038;76;21160;-89
2023/04/05 11:00:16;;;;;;;22.42;17.12;;;36.90;33.50;;;;;;1860681;76;21153;-88
2023/04/05 11:02:50;;;;;;;18.70;16.80;;;36.80;33.70;;;;;;1854564;77;21152;-90
2023/04/05 11:05:36;;;;;;;23.95;16.62;;;36.80;34.00;;;;;;1856195;77;21113;-89
2023/04/05 11:08:09;;;;;;;18.95;16.27;;;36.80;34.00;;;;;;1856367;77;21058;-90
2023/04/05 11:10:43;;;;;;;20.82;16.57;;;36.80;34.00;;;;;;1862308;77;21082;-89
2023/04/05 11:13:16;;;;;;;21.42;17.07;;;36.80;34.10;;;;;;1864250;76;21194;-89
2023/04/05 11:15:48;;;;;;;21.73;16.82;;;36.70;34.40;;;;;;1817325;77;21097;-91
2023/04/05 11:18:24;;;;;;;19.95;17.70;;;36.60;34.40;;;;;;1813603;78;21087;-90
2023/04/05 11:21:09;;;;;;;29.37;17.67;;;36.60;34.90;;;;;;1814212;78;21177;-86
2023/04/05 11:24:11;;;;;;;24.55;16.60;;;36.50;34.80;;;;;;1867738;76;21082;-87
2023/04/05 11:26:53;;;;;;;27.13;17.85;;;36.50;35.20;;;;;;1776175;78;21086;-90
2023/04/05 11:29:50;;;;;;;23.20;18.12;;;36.40;35.20;;;;;;1831593;78;21074;-90
2023/04/05 11:32:23;;;;;;;22.10;17.62;;;36.40;35.20;;;;;;1866256;76;21167;-90
2023/04/05 11:35:07;;;;;;;24.37;19.23;;;36.30;35.10;;;;;;1756392;82;21117;-91
2023/04/05 11:38:03;;;;;;;23.25;19.50;;;36.30;35.40;;;;;;1784581;80;21103;-91
2023/04/05 11:40:53;;;;;;;28.05;19.02;;;36.30;35.90;;;;;;1848830;77;21082;-91
2023/04/05 11:43:27;;;;;;;29.40;20.17;;;36.20;36.40;;;;;;1869393;76;21176;-92
2023/04/05 11:46:05;;;;;;;;;;;36.20;36.20;;;;;;1755123;80;21152;-89
2023/04/05 11:48:36;;;;;;;26.25;20.12;;;36.10;36.80;;;;;;1782070;80;20400;-91
2023/04/05 11:51:10;;;;;;;27.45;18.75;;;36.10;36.70;;;;;;1769923;80;21157;-90
2023/04/05 11:53:42;;;;;;;24.75;19.37;;;36.00;36.40;;;;;;1794170;80;21119;-87
2023/04/05 11:56:14;;;;;;;26.07;18.85;;;36.00;36.20;;;;;;1797483;80;21103;-91
2023/04/05 11:58:46;;;;;;;26.42;19.55;;;36.00;36.40;;;;;;1817577;78;21391;-85
2023/04/05 12:01:19;;;;;;;25.62;19.30;;;36.00;36.30;;;;;;1859985;76;21752;-90
2023/04/05 12:03:55;;;;;;;24.67;19.73;;;35.90;36.40;;;;;;1860471;76;21061;-91
2023/04/05 12:06:28;;;;;;;28.40;21.25;;;35.90;36.80;;;;;;1776686;79;21160;-90
2023/04/05 12:09:00;;;;;;;29.45;20.05;;;35.80;38.20;;;;;;1784435;79;21546;-91
2023/04/05 12:11:33;;;;;;;24.95;19.87;;;35.90;37.50;;;;;;1786462;79;21074;-88
2023/04/05 12:14:05;;;;;;;22.62;19.45;;;35.70;37.20;;;;;;1812241;79;21105;-90
2023/04/05 12:16:38;;;;;;;22.67;19.90;;;35.70;36.90;;;;;;1813842;79;21091;-90
2023/04/05 12:19:09;;;;;;;29.65;20.05;;;35.70;37.20;;;;;;1827657;77;21145;-91
2023/04/05 12:21:41;;;;;;;27.22;21.12;;;35.60;37.10;;;;;;1847778;75;21192;-90
2023/04/05 12:24:13;;;;;;;25.08;20.77;;;35.60;37.40;;;;;;1843355;77;21173;-90
2023/04/05 12:26:44;;;;;;;24.07;19.62;;;35.60;37.50;;;;;;1832333;78;21081;-90
2023/04/05 12:29:16;;;;;;;31.52;20.15;;;35.60;37.40;;;;;;1830912;78;21144;-89
2023/04/05 12:31:49;;;;;;;30.90;20.52;;;35.50;37.50;;;;;;1832894;78;21062;-89
2023/04/05 12:34:27;;;;;;;24.00;20.48;;;35.50;37.60;;;;;;1834087;77;21554;-89
2023/04/05 12:37:02;;;;;;;24.70;20.08;;;35.50;37.50;;;;;;1859714;76;21191;-89
2023/04/05 12:39:33;;;;;;;27.82;21.23;;;35.50;37.50;;;;;;1861432;76;21177;-88
2023/04/05 12:42:05;;;;;;;26.17;21.00;;;35.40;37.60;;;;;;1847697;76;21123;-89
2023/04/05 12:44:36;;;;;;;26.05;21.52;;;35.40;37.70;;;;;;1857683;76;21627;-91
2023/04/05 12:47:09;;;;;;;24.92;20.37;;;35.40;37.90;;;;;;1858943;76;21102;-88
2023/04/05 12:49:41;;;;;;;23.92;20.55;;;35.40;38.10;;;;;;1851949;76;21119;-90
2023/04/05 12:52:20;;;;;;;30.70;21.70;;;35.40;38.10;;;;;;1816373;77;21408;-91
2023/04/05 12:54:56;;;;;;;27.22;21.17;;;35.30;38.00;;;;;;1839278;77;21215;-90
2023/04/05 12:57:34;;;;;;;30.82;21.62;;;35.30;38.10;;;;;;1836448;77;21149;-91
2023/04/05 13:00:07;;;;;;;30.77;20.92;;;35.30;38.30;;;;;;1865002;76;21435;-89
2023/04/05 13:02:40;;;;;;;34.53;22.30;;;35.30;38.40;;;;;;1858418;77;21088;-91